createdAt,value
2018-08-18T00:00:56.008Z,99.24
2018-08-18T00:01:56.038Z,99.99
2018-08-18T00:02:56.071Z,99.99
2018-08-18T00:03:56.096Z,99.99
2018-08-18T00:04:56.128Z,99.99
2018-08-18T00:05:56.162Z,99.99
2018-08-18T00:06:56.187Z,99.99
2018-08-18T00:07:56.216Z,99.99
2018-08-18T00:08:56.251Z,99.99
2018-08-18T00:09:56.272Z,99.99
2018-08-18T00:10:56.302Z,99.99
2018-08-18T00:11:56.333Z,99.99
2018-08-18T00:12:56.361Z,99.99
2018-08-18T00:13:56.391Z,99.99
2018-08-18T00:14:56.422Z,99.99
2018-08-18T00:15:56.454Z,99.99
2018-08-18T00:16:56.481Z,99.99
2018-08-18T00:17:56.510Z,99.99
2018-08-18T00:18:56.540Z,99.99
2018-08-18T00:19:56.568Z,99.99
2018-08-18T00:20:56.599Z,99.99
2018-08-18T00:21:56.627Z,99.99
2018-08-18T00:22:56.658Z,99.99
2018-08-18T00:23:56.683Z,99.99
2018-08-18T00:24:56.716Z,99.99
2018-08-18T00:25:56.746Z,99.99
2018-08-18T00:26:56.979Z,99.99
2018-08-18T00:27:56.809Z,99.99
2018-08-18T00:28:56.833Z,99.99
2018-08-18T00:29:56.863Z,99.99
2018-08-18T00:30:56.899Z,99.99
2018-08-18T00:31:56.921Z,99.99
2018-08-18T00:32:56.955Z,99.99
2018-08-18T00:33:56.982Z,99.99
2018-08-18T00:35:00.438Z,99.99
2018-08-18T00:35:57.039Z,99.99
2018-08-18T00:36:57.065Z,99.99
2018-08-18T00:37:57.094Z,99.99
2018-08-18T00:38:57.123Z,99.99
2018-08-18T00:39:57.154Z,99.99
2018-08-18T00:40:57.186Z,99.99
2018-08-18T00:41:57.213Z,99.99
2018-08-18T00:42:57.240Z,99.99
2018-08-18T00:43:58.076Z,99.99
2018-08-18T00:44:57.312Z,99.99
2018-08-18T00:45:57.328Z,99.99
2018-08-18T00:46:57.358Z,99.99
2018-08-18T00:47:57.384Z,99.99
2018-08-18T00:48:57.416Z,99.99
2018-08-18T00:49:57.443Z,99.99
2018-08-18T00:50:57.472Z,99.99
2018-08-18T00:51:57.501Z,99.99
2018-08-18T00:52:57.531Z,99.99
2018-08-18T00:53:57.562Z,99.99
2018-08-18T00:54:57.591Z,99.99
2018-08-18T00:55:57.621Z,99.99
2018-08-18T00:56:57.648Z,99.99
2018-08-18T00:57:57.679Z,99.99
2018-08-18T00:58:57.708Z,99.99
2018-08-18T00:59:57.735Z,99.99
2018-08-18T01:00:57.766Z,99.99
2018-08-18T01:01:57.796Z,99.99
2018-08-18T01:02:57.826Z,99.99
2018-08-18T01:03:57.853Z,99.99
2018-08-18T01:04:57.883Z,99.99
2018-08-18T01:05:57.912Z,99.99
2018-08-18T01:06:57.939Z,99.99
2018-08-18T01:07:57.971Z,99.99
2018-08-18T01:08:57.999Z,99.99
2018-08-18T01:09:58.030Z,99.99
2018-08-18T01:10:58.098Z,99.99
2018-08-18T01:11:58.125Z,99.99
2018-08-18T01:12:58.288Z,99.99
2018-08-18T01:13:58.209Z,99.99
2018-08-18T01:14:58.334Z,99.99
2018-08-18T01:15:58.203Z,99.99
2018-08-18T01:16:58.232Z,99.99
2018-08-18T01:17:58.262Z,99.99
2018-08-18T01:18:58.290Z,99.99
2018-08-18T01:19:58.317Z,99.99
2018-08-18T01:20:58.352Z,99.99
2018-08-18T01:21:58.377Z,99.99
2018-08-18T01:22:58.407Z,99.99
2018-08-18T01:23:58.438Z,99.99
2018-08-18T01:24:58.464Z,99.99
2018-08-18T01:26:02.125Z,99.99
2018-08-18T01:26:58.532Z,99.99
2018-08-18T01:27:58.553Z,99.99
2018-08-18T01:28:58.582Z,99.99
2018-08-18T01:29:58.610Z,99.99
2018-08-18T01:30:58.638Z,99.99
2018-08-18T01:31:58.668Z,99.99
2018-08-18T01:32:58.697Z,99.99
2018-08-18T01:33:58.725Z,99.99
2018-08-18T01:34:58.758Z,99.99
2018-08-18T01:35:58.781Z,99.99
2018-08-18T01:36:58.811Z,99.99
2018-08-18T01:37:58.843Z,99.99
2018-08-18T01:38:58.870Z,99.99
2018-08-18T01:39:58.900Z,99.99
2018-08-18T01:40:58.931Z,99.99
2018-08-18T01:41:58.960Z,99.99
2018-08-18T01:42:58.987Z,99.99
2018-08-18T01:43:59.016Z,99.99
2018-08-18T01:44:59.048Z,99.99
2018-08-18T01:45:59.069Z,99.99
2018-08-18T01:46:59.102Z,99.99
2018-08-18T01:47:59.126Z,99.99
2018-08-18T01:49:01.779Z,99.99
2018-08-18T01:50:00.393Z,99.99
2018-08-18T01:50:59.211Z,99.99
2018-08-18T01:51:59.240Z,99.99
2018-08-18T01:52:59.276Z,99.99
2018-08-18T01:53:59.295Z,99.99
2018-08-18T01:54:59.327Z,99.99
2018-08-18T01:55:59.350Z,99.99
2018-08-18T01:56:59.383Z,99.99
2018-08-18T01:57:59.412Z,99.99
2018-08-18T01:58:59.442Z,99.99
2018-08-18T01:59:59.470Z,99.99
2018-08-18T02:00:59.498Z,99.99
2018-08-18T02:01:59.524Z,99.99
2018-08-18T02:02:59.556Z,99.99
2018-08-18T02:03:59.583Z,99.99
2018-08-18T02:04:59.614Z,99.99
2018-08-18T02:05:59.641Z,99.99
2018-08-18T02:06:59.673Z,99.99
2018-08-18T02:07:59.698Z,99.99
2018-08-18T02:08:59.734Z,99.99
2018-08-18T02:09:59.756Z,99.99
2018-08-18T02:10:59.786Z,99.99
2018-08-18T02:11:59.816Z,99.99
2018-08-18T02:12:59.846Z,99.99
2018-08-18T02:13:59.872Z,99.99
2018-08-18T02:14:59.900Z,99.99
2018-08-18T02:15:59.932Z,99.99
2018-08-18T02:16:59.959Z,99.99
2018-08-18T02:17:59.989Z,99.99
2018-08-18T02:19:00.017Z,99.99
2018-08-18T02:20:00.076Z,99.99
2018-08-18T02:21:00.074Z,99.99
2018-08-18T02:22:00.106Z,99.99
2018-08-18T02:23:00.143Z,99.99
2018-08-18T02:24:00.160Z,99.99
2018-08-18T02:25:00.189Z,99.99
2018-08-18T02:26:00.224Z,99.99
2018-08-18T02:27:00.251Z,99.99
2018-08-18T02:28:00.278Z,99.99
2018-08-18T02:29:00.307Z,99.99
2018-08-18T02:30:00.333Z,99.99
2018-08-18T02:31:00.367Z,99.99
2018-08-18T02:32:00.391Z,99.99
2018-08-18T02:33:00.420Z,99.99
2018-08-18T02:34:00.452Z,99.99
2018-08-18T02:35:00.480Z,99.99
2018-08-18T02:36:00.509Z,99.99
2018-08-18T02:37:00.539Z,99.99
2018-08-18T02:38:00.568Z,99.99
2018-08-18T02:39:00.593Z,99.99
2018-08-18T02:40:00.641Z,99.99
2018-08-18T02:41:00.651Z,99.99
2018-08-18T02:42:00.679Z,99.99
2018-08-18T02:43:00.718Z,99.99
2018-08-18T02:44:00.738Z,99.99
2018-08-18T02:45:00.768Z,99.99
2018-08-18T02:46:00.797Z,99.99
2018-08-18T02:47:00.824Z,99.99
2018-08-18T02:48:00.853Z,99.99
2018-08-18T02:49:00.879Z,99.99
2018-08-18T02:50:00.918Z,99.99
2018-08-18T02:51:00.938Z,99.99
2018-08-18T02:52:00.968Z,99.99
2018-08-18T02:53:00.997Z,99.99
2018-08-18T02:54:01.026Z,99.99
2018-08-18T02:55:01.052Z,99.99
2018-08-18T02:56:01.080Z,99.99
2018-08-18T02:57:01.114Z,99.99
2018-08-18T02:58:01.139Z,99.99
2018-08-18T02:59:01.169Z,99.99
2018-08-18T03:00:01.195Z,99.99
2018-08-18T03:01:01.224Z,99.99
2018-08-18T03:02:01.253Z,99.99
2018-08-18T03:03:01.284Z,99.99
2018-08-18T03:04:01.311Z,99.99
2018-08-18T03:05:01.340Z,99.99
2018-08-18T03:06:01.371Z,99.99
2018-08-18T03:07:01.400Z,99.99
2018-08-18T03:08:01.513Z,99.99
2018-08-18T03:09:01.454Z,99.99
2018-08-18T03:10:01.486Z,99.99
2018-08-18T03:11:01.524Z,99.99
2018-08-18T03:12:01.541Z,99.99
2018-08-18T03:13:01.571Z,99.99
2018-08-18T03:14:01.595Z,99.99
2018-08-18T03:15:01.628Z,99.99
2018-08-18T03:16:01.657Z,99.99
2018-08-18T03:17:01.680Z,99.99
2018-08-18T03:18:01.710Z,99.99
2018-08-18T03:19:01.742Z,99.99
2018-08-18T03:20:01.769Z,99.99
2018-08-18T03:21:01.797Z,99.99
2018-08-18T03:22:01.826Z,99.99
2018-08-18T03:23:01.856Z,99.99
2018-08-18T03:24:01.883Z,99.99
2018-08-18T03:25:01.911Z,99.99
2018-08-18T03:26:01.939Z,99.99
2018-08-18T03:27:01.970Z,99.99
2018-08-18T03:28:01.996Z,99.99
2018-08-18T03:29:02.064Z,99.99
2018-08-18T03:30:02.058Z,99.99
2018-08-18T03:31:02.079Z,99.99
2018-08-18T03:32:02.111Z,99.99
2018-08-18T03:33:02.138Z,99.99
2018-08-18T03:34:02.167Z,99.99
2018-08-18T03:35:02.195Z,99.99
2018-08-18T03:36:02.226Z,99.99
2018-08-18T03:37:02.252Z,99.99
2018-08-18T03:38:02.278Z,99.99
2018-08-18T03:39:02.309Z,99.99
2018-08-18T03:40:02.334Z,99.99
2018-08-18T03:41:02.364Z,99.99
2018-08-18T03:42:02.395Z,99.99
2018-08-18T03:43:02.420Z,99.99
2018-08-18T03:44:02.448Z,99.99
2018-08-18T03:45:02.479Z,99.99
2018-08-18T03:46:02.509Z,99.99
2018-08-18T03:47:02.535Z,99.99
2018-08-18T03:48:02.564Z,99.99
2018-08-18T03:49:02.597Z,99.99
2018-08-18T03:50:02.618Z,99.99
2018-08-18T03:51:02.648Z,99.99
2018-08-18T03:52:02.677Z,99.99
2018-08-18T03:53:02.707Z,99.99
2018-08-18T03:54:02.736Z,99.99
2018-08-18T03:55:02.764Z,99.99
2018-08-18T03:56:02.789Z,99.99
2018-08-18T03:57:02.843Z,99.99
2018-08-18T03:58:02.847Z,99.99
2018-08-18T03:59:02.877Z,99.99
2018-08-18T04:00:02.906Z,99.99
2018-08-18T04:01:02.934Z,99.99
2018-08-18T04:02:03.064Z,99.99
2018-08-18T04:03:02.991Z,99.99
2018-08-18T04:04:03.016Z,99.99
2018-08-18T04:05:03.046Z,99.99
2018-08-18T04:06:03.073Z,99.99
2018-08-18T04:07:03.106Z,99.99
2018-08-18T04:08:03.139Z,99.99
2018-08-18T04:09:03.193Z,99.99
2018-08-18T04:10:03.187Z,99.99
2018-08-18T04:11:03.218Z,99.99
2018-08-18T04:12:03.246Z,99.99
2018-08-18T04:13:03.274Z,99.99
2018-08-18T04:14:03.301Z,99.99
2018-08-18T04:15:03.332Z,99.99
2018-08-18T04:16:03.361Z,99.99
2018-08-18T04:17:03.388Z,99.99
2018-08-18T04:18:03.414Z,99.99
2018-08-18T04:19:03.554Z,99.99
2018-08-18T04:20:03.471Z,99.99
2018-08-18T04:21:03.499Z,99.99
2018-08-18T04:22:03.528Z,99.99
2018-08-18T04:23:03.559Z,99.99
2018-08-18T04:24:03.587Z,99.99
2018-08-18T04:25:03.622Z,99.99
2018-08-18T04:26:03.642Z,99.99
2018-08-18T04:27:03.678Z,99.99
2018-08-18T04:28:03.698Z,99.99
2018-08-18T04:29:03.728Z,99.99
2018-08-18T04:30:03.757Z,99.99
2018-08-18T04:31:03.786Z,99.99
2018-08-18T04:32:03.811Z,99.99
2018-08-18T04:33:03.838Z,99.99
2018-08-18T04:34:03.867Z,99.99
2018-08-18T04:35:03.896Z,99.99
2018-08-18T04:36:03.923Z,99.99
2018-08-18T04:37:03.954Z,99.99
2018-08-18T04:38:03.980Z,99.99
2018-08-18T04:39:04.009Z,99.99
2018-08-18T04:40:04.037Z,99.99
2018-08-18T04:41:04.068Z,99.99
2018-08-18T04:42:04.093Z,99.99
2018-08-18T04:43:04.122Z,99.99
2018-08-18T04:44:04.149Z,99.99
2018-08-18T04:45:04.181Z,99.99
2018-08-18T04:46:04.208Z,99.99
2018-08-18T04:47:04.238Z,99.99
2018-08-18T04:48:04.265Z,99.99
2018-08-18T04:49:04.294Z,99.99
2018-08-18T04:50:04.319Z,99.99
2018-08-18T04:51:04.349Z,99.99
2018-08-18T04:52:04.376Z,99.99
2018-08-18T04:53:04.406Z,99.99
2018-08-18T04:54:04.432Z,99.99
2018-08-18T04:55:04.463Z,99.99
2018-08-18T04:56:04.489Z,99.99
2018-08-18T04:57:04.567Z,99.99
2018-08-18T04:58:04.551Z,99.99
2018-08-18T04:59:04.574Z,99.99
2018-08-18T05:00:04.601Z,99.99
2018-08-18T05:01:04.630Z,99.99
2018-08-18T05:02:04.661Z,99.99
2018-08-18T05:03:04.687Z,99.99
2018-08-18T05:04:04.714Z,99.99
2018-08-18T05:05:04.770Z,99.99
2018-08-18T05:06:04.772Z,99.99
2018-08-18T05:07:04.800Z,99.99
2018-08-18T05:08:04.827Z,99.99
2018-08-18T05:09:04.856Z,99.99
2018-08-18T05:10:04.884Z,99.99
2018-08-18T05:11:04.917Z,99.99
2018-08-18T05:12:04.944Z,99.99
2018-08-18T05:13:04.972Z,99.99
2018-08-18T05:14:04.997Z,99.99
2018-08-18T05:15:05.028Z,99.99
2018-08-18T05:16:05.055Z,99.99
2018-08-18T05:17:05.085Z,99.99
2018-08-18T05:18:05.111Z,99.99
2018-08-18T05:19:05.183Z,99.99
2018-08-18T05:20:05.169Z,99.99
2018-08-18T05:21:05.198Z,99.99
2018-08-18T05:22:05.225Z,99.99
2018-08-18T05:23:05.254Z,99.99
2018-08-18T05:24:05.281Z,99.99
2018-08-18T05:25:05.314Z,99.99
2018-08-18T05:26:05.338Z,99.99
2018-08-18T05:27:05.370Z,99.99
2018-08-18T05:28:05.405Z,99.99
2018-08-18T05:29:05.423Z,99.99
2018-08-18T05:30:05.454Z,99.99
2018-08-18T05:31:05.484Z,99.99
2018-08-18T05:32:05.510Z,99.99
2018-08-18T05:33:05.537Z,99.99
2018-08-18T05:34:05.578Z,99.99
2018-08-18T05:35:05.601Z,99.99
2018-08-18T05:36:05.624Z,99.99
2018-08-18T05:37:05.653Z,99.99
2018-08-18T05:38:05.683Z,99.99
2018-08-18T05:39:05.710Z,99.99
2018-08-18T05:40:05.744Z,99.99
2018-08-18T05:41:05.765Z,99.99
2018-08-18T05:42:05.795Z,99.99
2018-08-18T05:43:05.822Z,99.99
2018-08-18T05:44:05.849Z,99.99
2018-08-18T05:45:05.879Z,99.99
2018-08-18T05:46:05.910Z,99.99
2018-08-18T05:47:05.936Z,99.99
2018-08-18T05:48:05.964Z,99.99
2018-08-18T05:49:05.992Z,99.99
2018-08-18T05:50:06.024Z,99.99
2018-08-18T05:51:06.049Z,99.99
2018-08-18T05:52:06.077Z,99.99
2018-08-18T05:53:06.109Z,99.99
2018-08-18T05:54:06.137Z,99.99
2018-08-18T05:55:06.163Z,99.99
2018-08-18T05:56:06.191Z,99.99
2018-08-18T05:57:06.223Z,99.99
2018-08-18T05:58:06.249Z,99.99
2018-08-18T05:59:06.283Z,99.99
2018-08-18T06:00:06.307Z,99.99
2018-08-18T06:01:06.335Z,99.99
2018-08-18T06:02:06.366Z,99.99
2018-08-18T06:03:06.395Z,99.99
2018-08-18T06:04:06.421Z,99.99
2018-08-18T06:05:06.452Z,99.99
2018-08-18T06:06:06.480Z,99.99
2018-08-18T06:07:06.510Z,99.99
2018-08-18T06:08:06.536Z,99.99
2018-08-18T06:09:06.565Z,99.99
2018-08-18T06:10:06.594Z,99.99
2018-08-18T06:11:06.624Z,99.99
2018-08-18T06:12:06.711Z,99.99
2018-08-18T06:13:06.679Z,99.99
2018-08-18T06:14:06.708Z,99.99
2018-08-18T06:15:06.740Z,99.99
2018-08-18T06:16:06.766Z,99.92
2018-08-18T06:17:06.799Z,99.20
2018-08-18T06:18:06.823Z,97.96
2018-08-18T06:19:06.854Z,98.48
2018-08-18T06:20:06.882Z,99.99
2018-08-18T06:21:06.920Z,99.99
2018-08-18T06:22:06.942Z,99.99
2018-08-18T06:23:06.971Z,99.99
2018-08-18T06:24:07.003Z,99.99
2018-08-18T06:25:07.034Z,99.99
2018-08-18T06:26:07.063Z,99.99
2018-08-18T06:27:07.090Z,98.91
2018-08-18T06:28:07.121Z,96.47
2018-08-18T06:29:07.149Z,94.45
2018-08-18T06:30:07.179Z,93.53
2018-08-18T06:31:07.209Z,92.19
2018-08-18T06:32:07.239Z,91.80
2018-08-18T06:33:07.271Z,91.27
2018-08-18T06:34:07.299Z,89.92
2018-08-18T06:35:07.393Z,89.54
2018-08-18T06:36:07.361Z,88.57
2018-08-18T06:37:07.392Z,87.37
2018-08-18T06:38:07.420Z,87.56
2018-08-18T06:39:07.452Z,86.99
2018-08-18T06:40:07.481Z,86.12
2018-08-18T06:41:07.624Z,86.79
2018-08-18T06:42:07.545Z,86.31
2018-08-18T06:43:07.577Z,85.78
2018-08-18T06:44:07.605Z,85.39
2018-08-18T06:45:07.639Z,85.39
2018-08-18T06:46:07.671Z,85.54
2018-08-18T06:47:07.701Z,85.35
2018-08-18T06:48:07.728Z,85.54
2018-08-18T06:49:07.760Z,84.81
2018-08-18T06:50:07.797Z,84.91
2018-08-18T06:51:07.825Z,85.10
2018-08-18T06:52:07.862Z,84.43
2018-08-18T06:53:07.895Z,84.72
2018-08-18T06:54:07.921Z,85.10
2018-08-18T06:55:08.098Z,84.62
2018-08-18T06:56:50.565Z,84.62
2018-08-18T06:57:50.573Z,84.81
2018-08-18T06:58:50.603Z,84.28
2018-08-18T06:59:50.636Z,83.47
2018-08-18T07:00:50.670Z,84.33
2018-08-18T07:01:50.706Z,83.66
2018-08-18T07:02:50.735Z,84.23
2018-08-18T07:03:50.768Z,83.85
2018-08-18T07:04:50.803Z,83.85
2018-08-18T07:05:50.840Z,83.85
2018-08-18T07:06:50.869Z,83.22
2018-08-18T07:07:50.900Z,83.12
2018-08-18T07:08:50.936Z,83.18
2018-08-18T07:09:50.967Z,84.05
2018-08-18T07:10:51.002Z,84.91
2018-08-18T07:11:51.036Z,83.85
2018-08-18T07:12:51.070Z,83.41
2018-08-18T07:13:51.102Z,82.39
2018-08-18T07:14:51.139Z,80.99
2018-08-18T07:15:51.170Z,78.86
2018-08-18T07:16:51.203Z,78.03
2018-08-18T07:17:51.237Z,77.65
2018-08-18T07:18:51.275Z,77.84
2018-08-18T07:19:51.307Z,77.01
2018-08-18T07:20:51.340Z,77.40
2018-08-18T07:21:51.372Z,76.53
2018-08-18T07:22:51.410Z,76.24
2018-08-18T07:23:51.444Z,75.85
2018-08-18T07:24:51.476Z,74.99
2018-08-18T07:25:51.513Z,73.86
2018-08-18T07:26:51.546Z,73.19
2018-08-18T07:27:51.580Z,73.09
2018-08-18T07:28:51.799Z,73.63
2018-08-18T07:29:51.659Z,75.72
2018-08-18T07:30:51.726Z,76.36
2018-08-18T07:31:51.723Z,76.20
2018-08-18T07:32:51.759Z,76.01
2018-08-18T07:33:51.795Z,76.10
2018-08-18T07:34:51.827Z,75.82
2018-08-18T07:35:51.864Z,74.60
2018-08-18T07:36:51.896Z,72.36
2018-08-18T07:37:51.974Z,71.48
2018-08-18T07:38:51.972Z,71.58
2018-08-18T07:39:52.007Z,71.04
2018-08-18T07:40:52.040Z,69.78
2018-08-18T07:41:52.077Z,69.49
2018-08-18T07:42:52.113Z,68.82
2018-08-18T07:43:52.150Z,68.17
2018-08-18T07:44:52.183Z,67.56
2018-08-18T07:45:52.220Z,67.27
2018-08-18T07:46:52.259Z,67.36
2018-08-18T07:47:52.323Z,67.08
2018-08-18T07:48:52.331Z,66.82
2018-08-18T07:49:52.364Z,66.37
2018-08-18T07:50:52.401Z,65.01
2018-08-18T07:51:52.437Z,65.11
2018-08-18T07:52:52.474Z,65.43
2018-08-18T07:53:52.511Z,64.37
2018-08-18T07:54:52.548Z,65.05
2018-08-18T07:55:52.586Z,64.27
2018-08-18T07:56:52.620Z,64.62
2018-08-18T07:57:52.662Z,63.69
2018-08-18T07:58:52.696Z,65.05
2018-08-18T07:59:52.733Z,66.08
2018-08-18T08:00:52.771Z,66.36
2018-08-18T08:01:52.807Z,66.08
2018-08-18T08:02:52.846Z,65.43
2018-08-18T08:03:52.880Z,63.92
2018-08-18T08:04:52.975Z,62.92
2018-08-18T08:05:52.959Z,63.40
2018-08-18T08:06:52.995Z,63.14
2018-08-18T08:07:53.029Z,62.27
2018-08-18T08:08:53.065Z,62.08
2018-08-18T08:09:53.105Z,62.47
2018-08-18T08:10:53.142Z,62.95
2018-08-18T08:11:53.180Z,62.27
2018-08-18T08:12:53.271Z,61.82
2018-08-18T08:13:53.252Z,61.66
2018-08-18T08:14:53.290Z,60.59
2018-08-18T08:15:53.331Z,59.49
2018-08-18T08:16:53.368Z,58.94
2018-08-18T08:17:53.404Z,57.87
2018-08-18T08:18:53.439Z,58.33
2018-08-18T08:19:53.477Z,57.91
2018-08-18T08:20:53.514Z,58.37
2018-08-18T08:21:53.553Z,59.72
2018-08-18T08:22:53.589Z,59.66
2018-08-18T08:23:53.625Z,58.78
2018-08-18T08:24:53.666Z,58.14
2018-08-18T08:25:53.699Z,56.71
2018-08-18T08:26:53.739Z,56.87
2018-08-18T08:27:56.397Z,57.97
2018-08-18T08:28:54.839Z,56.97
2018-08-18T08:29:53.852Z,57.43
2018-08-18T08:30:53.889Z,57.45
2018-08-18T08:31:53.923Z,56.94
2018-08-18T08:32:53.962Z,57.98
2018-08-18T08:33:54.013Z,58.11
2018-08-18T08:34:54.036Z,58.72
2018-08-18T08:35:54.093Z,57.17
2018-08-18T08:36:54.237Z,56.23
2018-08-18T08:37:54.152Z,56.10
2018-08-18T08:38:54.191Z,55.83
2018-08-18T08:39:54.228Z,54.94
2018-08-18T08:40:54.267Z,55.54
2018-08-18T08:41:54.302Z,54.60
2018-08-18T08:42:54.398Z,53.47
2018-08-18T08:43:54.382Z,52.30
2018-08-18T08:44:54.417Z,52.72
2018-08-18T08:45:54.453Z,53.70
2018-08-18T08:46:54.492Z,53.63
2018-08-18T08:47:54.532Z,53.15
2018-08-18T08:48:54.578Z,53.15
2018-08-18T08:49:54.607Z,53.92
2018-08-18T08:50:54.643Z,53.20
2018-08-18T08:51:54.683Z,53.00
2018-08-18T08:52:54.720Z,52.06
2018-08-18T08:53:54.761Z,52.23
2018-08-18T08:54:54.797Z,52.98
2018-08-18T08:55:54.838Z,53.20
2018-08-18T08:56:54.873Z,52.64
2018-08-18T08:57:54.913Z,51.79
2018-08-18T08:58:54.985Z,50.80
2018-08-18T08:59:54.990Z,51.11
2018-08-18T09:00:55.029Z,51.40
2018-08-18T09:01:55.069Z,50.46
2018-08-18T09:02:55.106Z,49.58
2018-08-18T09:03:55.146Z,49.32
2018-08-18T09:04:55.185Z,49.49
2018-08-18T09:05:55.228Z,49.92
2018-08-18T09:06:55.264Z,51.45
2018-08-18T09:07:55.301Z,51.35
2018-08-18T09:08:55.340Z,50.82
2018-08-18T09:09:55.376Z,50.53
2018-08-18T09:10:55.415Z,50.80
2018-08-18T09:11:55.455Z,52.33
2018-08-18T09:12:55.496Z,51.38
2018-08-18T09:13:55.535Z,50.31
2018-08-18T09:14:55.574Z,51.06
2018-08-18T09:15:55.610Z,50.80
2018-08-18T09:16:55.650Z,51.06
2018-08-18T09:17:55.692Z,51.62
2018-08-18T09:18:55.730Z,51.18
2018-08-18T09:19:55.767Z,50.19
2018-08-18T09:20:55.806Z,50.65
2018-08-18T09:21:55.848Z,51.43
2018-08-18T09:22:55.886Z,50.92
2018-08-18T09:23:55.922Z,51.50
2018-08-18T09:24:55.962Z,52.11
2018-08-18T09:25:56.052Z,51.45
2018-08-18T09:26:56.048Z,50.19
2018-08-18T09:27:56.081Z,50.24
2018-08-18T09:28:56.120Z,49.54
2018-08-18T09:29:56.157Z,49.27
2018-08-18T09:30:56.199Z,49.46
2018-08-18T09:31:56.236Z,48.73
2018-08-18T09:32:56.274Z,49.61
2018-08-18T09:33:56.314Z,49.24
2018-08-18T09:34:56.362Z,49.15
2018-08-18T09:35:56.393Z,50.31
2018-08-18T09:36:56.433Z,49.51
2018-08-18T09:37:56.475Z,50.87
2018-08-18T09:38:56.511Z,51.16
2018-08-18T09:39:56.546Z,50.48
2018-08-18T09:40:56.592Z,50.53
2018-08-18T09:41:56.638Z,48.10
2018-08-18T09:42:56.667Z,48.13
2018-08-18T09:43:56.700Z,48.37
2018-08-18T09:44:56.740Z,49.07
2018-08-18T09:45:56.779Z,47.15
2018-08-18T09:46:56.817Z,46.18
2018-08-18T09:47:56.856Z,46.84
2018-08-18T09:48:56.898Z,46.55
2018-08-18T09:49:56.938Z,47.03
2018-08-18T09:50:56.978Z,46.94
2018-08-18T09:51:57.017Z,46.84
2018-08-18T09:52:57.053Z,45.69
2018-08-18T09:53:57.094Z,45.89
2018-08-18T09:54:57.130Z,45.40
2018-08-18T09:55:57.171Z,45.89
2018-08-18T09:56:57.211Z,45.69
2018-08-18T09:57:57.248Z,46.08
2018-08-18T09:58:57.287Z,45.52
2018-08-18T09:59:57.325Z,45.25
2018-08-18T10:00:57.368Z,44.28
2018-08-18T10:01:57.406Z,45.15
2018-08-18T10:02:57.446Z,44.96
2018-08-18T10:03:57.483Z,45.31
2018-08-18T10:04:57.523Z,45.81
2018-08-18T10:05:57.562Z,45.18
2018-08-18T10:06:57.603Z,44.52
2018-08-18T10:07:57.641Z,44.32
2018-08-18T10:08:57.681Z,43.84
2018-08-18T10:09:57.718Z,43.76
2018-08-18T10:10:57.762Z,43.81
2018-08-18T10:11:57.797Z,44.13
2018-08-18T10:12:57.839Z,43.35
2018-08-18T10:13:57.879Z,43.70
2018-08-18T10:14:57.919Z,44.86
2018-08-18T10:15:57.959Z,44.62
2018-08-18T10:16:57.997Z,44.17
2018-08-18T10:17:58.038Z,43.22
2018-08-18T10:18:58.077Z,42.98
2018-08-18T10:19:58.117Z,43.10
2018-08-18T10:20:58.154Z,43.15
2018-08-18T10:21:58.197Z,47.01
2018-08-18T10:22:58.235Z,50.26
2018-08-18T10:23:58.277Z,50.84
2018-08-18T10:24:58.315Z,48.39
2018-08-18T10:25:58.356Z,48.61
2018-08-18T10:26:58.392Z,48.13
2018-08-18T10:27:58.438Z,46.50
2018-08-18T10:28:58.471Z,46.59
2018-08-18T10:29:58.514Z,45.28
2018-08-18T10:30:58.555Z,44.30
2018-08-18T10:31:58.596Z,45.23
2018-08-18T10:32:58.631Z,46.45
2018-08-18T10:33:58.672Z,49.22
2018-08-18T10:34:58.708Z,49.37
2018-08-18T10:35:58.749Z,49.24
2018-08-18T10:36:58.810Z,48.42
2018-08-18T10:37:58.827Z,49.73
2018-08-18T10:38:58.864Z,51.42
2018-08-18T10:39:58.904Z,52.71
2018-08-18T10:40:59.354Z,49.99
2018-08-18T10:41:59.026Z,48.44
2018-08-18T10:42:59.019Z,48.37
2018-08-18T10:43:59.056Z,47.15
2018-08-18T10:45:01.720Z,45.79
2018-08-18T10:45:59.136Z,46.01
2018-08-18T10:46:59.175Z,46.77
2018-08-18T10:47:59.210Z,45.84
2018-08-18T10:48:59.252Z,45.54
2018-08-18T10:49:59.289Z,45.86
2018-08-18T10:50:59.327Z,44.62
2018-08-18T10:51:59.364Z,44.30
2018-08-18T10:52:59.405Z,45.32
2018-08-18T10:53:59.442Z,45.45
2018-08-18T10:54:59.483Z,45.35
2018-08-18T10:55:59.520Z,45.18
2018-08-18T10:56:59.557Z,43.84
2018-08-18T10:57:59.599Z,42.98
2018-08-18T10:58:59.639Z,43.13
2018-08-18T10:59:59.676Z,44.49
2018-08-18T11:00:59.714Z,44.67
2018-08-18T11:01:59.759Z,44.98
2018-08-18T11:02:59.791Z,44.34
2018-08-18T11:03:59.925Z,43.19
2018-08-18T11:04:59.868Z,42.90
2018-08-18T11:05:59.908Z,42.71
2018-08-18T11:06:59.946Z,42.12
2018-08-18T11:07:59.985Z,42.32
2018-08-18T11:09:00.025Z,42.05
2018-08-18T11:10:00.067Z,41.36
2018-08-18T11:11:00.106Z,42.07
2018-08-18T11:12:00.279Z,41.46
2018-08-18T11:13:00.185Z,42.88
2018-08-18T11:14:00.222Z,43.18
2018-08-18T11:15:00.262Z,42.61
2018-08-18T11:16:00.302Z,43.19
2018-08-18T11:17:00.342Z,42.44
2018-08-18T11:18:00.383Z,41.25
2018-08-18T11:19:00.422Z,40.93
2018-08-18T11:20:00.460Z,41.75
2018-08-18T11:21:00.501Z,43.04
2018-08-18T11:22:00.539Z,43.13
2018-08-18T11:23:00.582Z,42.74
2018-08-18T11:24:00.619Z,43.50
2018-08-18T11:25:00.660Z,43.23
2018-08-18T11:26:00.700Z,41.83
2018-08-18T11:27:00.740Z,41.20
2018-08-18T11:28:00.780Z,42.18
2018-08-18T11:29:00.817Z,42.76
2018-08-18T11:30:00.860Z,42.16
2018-08-18T11:31:00.896Z,42.25
2018-08-18T11:32:00.935Z,42.82
2018-08-18T11:33:00.975Z,42.10
2018-08-18T11:34:01.014Z,40.95
2018-08-18T11:35:01.080Z,40.86
2018-08-18T11:36:01.096Z,40.56
2018-08-18T11:37:01.133Z,40.09
2018-08-18T11:38:01.178Z,39.62
2018-08-18T11:39:01.216Z,39.43
2018-08-18T11:40:01.257Z,39.61
2018-08-18T11:41:01.296Z,40.39
2018-08-18T11:42:01.332Z,40.50
2018-08-18T11:43:01.372Z,40.17
2018-08-18T11:44:01.415Z,40.66
2018-08-18T11:45:01.456Z,41.20
2018-08-18T11:46:01.493Z,42.08
2018-08-18T11:47:01.544Z,42.33
2018-08-18T11:48:01.573Z,42.53
2018-08-18T11:49:01.619Z,42.65
2018-08-18T11:50:01.652Z,41.89
2018-08-18T11:51:01.692Z,41.25
2018-08-18T11:52:01.733Z,40.73
2018-08-18T11:53:01.774Z,41.03
2018-08-18T11:54:01.813Z,40.64
2018-08-18T11:55:01.852Z,39.98
2018-08-18T11:56:01.888Z,39.10
2018-08-18T11:57:01.931Z,39.86
2018-08-18T11:58:01.969Z,40.03
2018-08-18T11:59:02.011Z,40.91
2018-08-18T12:00:02.050Z,40.91
2018-08-18T12:01:02.124Z,40.83
2018-08-18T12:02:02.203Z,40.91
2018-08-18T12:03:02.170Z,41.20
2018-08-18T12:04:02.208Z,40.91
2018-08-18T12:05:02.245Z,41.11
2018-08-18T12:06:02.288Z,41.20
2018-08-18T12:07:02.328Z,40.56
2018-08-18T12:08:02.366Z,39.76
2018-08-18T12:09:02.406Z,40.27
2018-08-18T12:10:02.445Z,39.59
2018-08-18T12:11:02.501Z,40.33
2018-08-18T12:12:02.525Z,40.55
2018-08-18T12:13:02.561Z,39.78
2018-08-18T12:14:02.600Z,39.86
2018-08-18T12:15:02.642Z,40.37
2018-08-18T12:16:02.679Z,39.62
2018-08-18T12:17:02.718Z,39.20
2018-08-18T12:18:02.758Z,40.99
2018-08-18T12:19:02.800Z,41.13
2018-08-18T12:20:02.836Z,40.29
2018-08-18T12:21:02.875Z,38.84
2018-08-18T12:22:02.918Z,38.94
2018-08-18T12:23:02.954Z,39.41
2018-08-18T12:24:02.994Z,39.51
2018-08-18T12:25:03.032Z,38.57
2018-08-18T12:26:03.076Z,39.39
2018-08-18T12:27:03.115Z,40.56
2018-08-18T12:28:03.157Z,40.39
2018-08-18T12:29:03.190Z,39.04
2018-08-18T12:30:03.282Z,38.87
2018-08-18T12:31:03.269Z,38.20
2018-08-18T12:32:03.311Z,37.54
2018-08-18T12:33:03.349Z,37.54
2018-08-18T12:34:03.406Z,37.26
2018-08-18T12:35:03.428Z,36.46
2018-08-18T12:36:03.473Z,37.73
2018-08-18T12:37:03.726Z,39.28
2018-08-18T12:38:03.545Z,40.33
2018-08-18T12:39:03.584Z,39.67
2018-08-18T12:40:03.625Z,38.22
2018-08-18T12:41:03.663Z,39.20
2018-08-18T12:42:03.704Z,40.23
2018-08-18T12:43:03.742Z,41.06
2018-08-18T12:44:03.782Z,40.99
2018-08-18T12:45:03.822Z,39.96
2018-08-18T12:46:03.862Z,39.39
2018-08-18T12:47:03.908Z,38.71
2018-08-18T12:48:03.940Z,38.81
2018-08-18T12:49:03.979Z,38.43
2018-08-18T12:50:04.175Z,37.87
2018-08-18T12:51:04.056Z,37.67
2018-08-18T12:52:04.096Z,37.67
2018-08-18T12:53:04.133Z,38.20
2018-08-18T12:54:04.172Z,39.57